sensor_id;sensor_type;location;lat;lon;timestamp;P1;durP1;ratioP1;P2;durP2;ratioP2
31716;SDS011;18301;51.076;17.046;2023-01-23T00:02:10;42.35;;;19.23;;
31716;SDS011;18301;51.076;17.046;2023-01-23T00:07:12;45.97;;;20.65;;
31716;SDS011;18301;51.076;17.046;2023-01-23T00:12:13;46.03;;;20.30;;
31716;SDS011;18301;51.076;17.046;2023-01-23T00:17:15;43.53;;;19.40;;
31716;SDS011;18301;51.076;17.046;2023-01-23T00:22:16;50.22;;;20.85;;
31716;SDS011;18301;51.076;17.046;2023-01-23T00:27:18;50.13;;;20.30;;
31716;SDS011;18301;51.076;17.046;2023-01-23T00:32:19;51.95;;;20.98;;
31716;SDS011;18301;51.076;17.046;2023-01-23T00:37:21;52.95;;;21.38;;
31716;SDS011;18301;51.076;17.046;2023-01-23T00:42:22;51.00;;;20.05;;
31716;SDS011;18301;51.076;17.046;2023-01-23T00:47:24;51.88;;;20.50;;
31716;SDS011;18301;51.076;17.046;2023-01-23T00:52:25;51.40;;;21.25;;
31716;SDS011;18301;51.076;17.046;2023-01-23T00:57:27;52.50;;;20.70;;
31716;SDS011;18301;51.076;17.046;2023-01-23T01:02:30;47.50;;;19.70;;
31716;SDS011;18301;51.076;17.046;2023-01-23T01:07:31;51.67;;;20.70;;
31716;SDS011;18301;51.076;17.046;2023-01-23T01:12:33;50.75;;;20.33;;
31716;SDS011;18301;51.076;17.046;2023-01-23T01:17:35;50.65;;;20.27;;
31716;SDS011;18301;51.076;17.046;2023-01-23T01:22:36;53.55;;;20.98;;
31716;SDS011;18301;51.076;17.046;2023-01-23T01:27:38;56.70;;;21.77;;
31716;SDS011;18301;51.076;17.046;2023-01-23T01:32:40;57.92;;;22.27;;
31716;SDS011;18301;51.076;17.046;2023-01-23T01:37:42;57.35;;;21.83;;
31716;SDS011;18301;51.076;17.046;2023-01-23T01:42:48;60.97;;;22.88;;
31716;SDS011;18301;51.076;17.046;2023-01-23T01:47:52;57.78;;;22.50;;
31716;SDS011;18301;51.076;17.046;2023-01-23T01:52:54;55.08;;;21.02;;
31716;SDS011;18301;51.076;17.046;2023-01-23T01:57:55;54.28;;;22.33;;
31716;SDS011;18301;51.076;17.046;2023-01-23T02:02:57;54.70;;;22.00;;
31716;SDS011;18301;51.076;17.046;2023-01-23T02:13:25;48.92;;;20.38;;
31716;SDS011;18301;51.076;17.046;2023-01-23T02:18:40;57.90;;;21.35;;
31716;SDS011;18301;51.076;17.046;2023-01-23T02:24:08;56.70;;;21.55;;
31716;SDS011;18301;51.076;17.046;2023-01-23T02:29:43;58.53;;;21.50;;
31716;SDS011;18301;51.076;17.046;2023-01-23T02:34:46;55.63;;;20.45;;
31716;SDS011;18301;51.076;17.046;2023-01-23T02:39:47;50.65;;;19.73;;
31716;SDS011;18301;51.076;17.046;2023-01-23T02:44:49;53.50;;;20.88;;
31716;SDS011;18301;51.076;17.046;2023-01-23T02:49:53;53.15;;;20.60;;
31716;SDS011;18301;51.076;17.046;2023-01-23T02:54:55;56.30;;;20.80;;
31716;SDS011;18301;51.076;17.046;2023-01-23T02:59:56;56.10;;;20.55;;
31716;SDS011;18301;51.076;17.046;2023-01-23T03:05:17;57.42;;;21.45;;
31716;SDS011;18301;51.076;17.046;2023-01-23T03:10:19;56.53;;;20.40;;
31716;SDS011;18301;51.076;17.046;2023-01-23T03:15:21;51.90;;;20.50;;
31716;SDS011;18301;51.076;17.046;2023-01-23T03:20:22;59.00;;;21.33;;
31716;SDS011;18301;51.076;17.046;2023-01-23T03:25:23;60.45;;;21.15;;
31716;SDS011;18301;51.076;17.046;2023-01-23T03:30:25;59.22;;;21.40;;
31716;SDS011;18301;51.076;17.046;2023-01-23T03:35:26;60.67;;;22.50;;
31716;SDS011;18301;51.076;17.046;2023-01-23T03:40:28;57.33;;;20.13;;
31716;SDS011;18301;51.076;17.046;2023-01-23T03:45:48;59.90;;;22.70;;
31716;SDS011;18301;51.076;17.046;2023-01-23T03:50:49;64.20;;;22.58;;
31716;SDS011;18301;51.076;17.046;2023-01-23T03:55:51;61.20;;;21.85;;
31716;SDS011;18301;51.076;17.046;2023-01-23T04:00:52;59.03;;;22.13;;
31716;SDS011;18301;51.076;17.046;2023-01-23T04:05:55;60.97;;;21.80;;
31716;SDS011;18301;51.076;17.046;2023-01-23T04:11:05;64.90;;;22.63;;
31716;SDS011;18301;51.076;17.046;2023-01-23T04:16:08;62.33;;;23.88;;
31716;SDS011;18301;51.076;17.046;2023-01-23T04:21:09;59.83;;;21.75;;
31716;SDS011;18301;51.076;17.046;2023-01-23T04:26:11;62.00;;;23.23;;
31716;SDS011;18301;51.076;17.046;2023-01-23T04:31:13;61.10;;;21.85;;
31716;SDS011;18301;51.076;17.046;2023-01-23T04:36:14;62.40;;;22.27;;
31716;SDS011;18301;51.076;17.046;2023-01-23T04:41:18;64.95;;;22.73;;
31716;SDS011;18301;51.076;17.046;2023-01-23T04:46:25;61.95;;;22.85;;
31716;SDS011;18301;51.076;17.046;2023-01-23T04:51:26;58.72;;;21.15;;
31716;SDS011;18301;51.076;17.046;2023-01-23T04:56:28;56.72;;;20.52;;
31716;SDS011;18301;51.076;17.046;2023-01-23T05:01:29;56.10;;;21.33;;
31716;SDS011;18301;51.076;17.046;2023-01-23T05:06:31;50.28;;;20.75;;
31716;SDS011;18301;51.076;17.046;2023-01-23T05:11:33;58.38;;;21.85;;
31716;SDS011;18301;51.076;17.046;2023-01-23T05:16:34;52.00;;;20.85;;
31716;SDS011;18301;51.076;17.046;2023-01-23T05:21:36;54.47;;;20.98;;
31716;SDS011;18301;51.076;17.046;2023-01-23T05:26:37;58.40;;;21.15;;
31716;SDS011;18301;51.076;17.046;2023-01-23T05:31:39;50.38;;;21.10;;
31716;SDS011;18301;51.076;17.046;2023-01-23T05:36:40;55.60;;;20.58;;
31716;SDS011;18301;51.076;17.046;2023-01-23T05:41:42;54.47;;;21.50;;
31716;SDS011;18301;51.076;17.046;2023-01-23T05:46:43;53.22;;;22.17;;
31716;SDS011;18301;51.076;17.046;2023-01-23T05:51:45;52.92;;;21.27;;
31716;SDS011;18301;51.076;17.046;2023-01-23T05:56:46;54.15;;;21.05;;
31716;SDS011;18301;51.076;17.046;2023-01-23T06:01:48;61.25;;;21.73;;
31716;SDS011;18301;51.076;17.046;2023-01-23T06:06:49;57.05;;;21.42;;
31716;SDS011;18301;51.076;17.046;2023-01-23T06:11:51;61.05;;;21.83;;
31716;SDS011;18301;51.076;17.046;2023-01-23T06:16:52;52.58;;;20.73;;
31716;SDS011;18301;51.076;17.046;2023-01-23T06:21:54;59.25;;;21.75;;
31716;SDS011;18301;51.076;17.046;2023-01-23T06:26:55;58.55;;;21.73;;
31716;SDS011;18301;51.076;17.046;2023-01-23T06:31:57;54.85;;;22.38;;
31716;SDS011;18301;51.076;17.046;2023-01-23T06:36:58;57.97;;;21.98;;
31716;SDS011;18301;51.076;17.046;2023-01-23T06:42:00;53.42;;;20.80;;
31716;SDS011;18301;51.076;17.046;2023-01-23T06:47:02;59.42;;;21.50;;
31716;SDS011;18301;51.076;17.046;2023-01-23T06:52:04;54.50;;;21.00;;
31716;SDS011;18301;51.076;17.046;2023-01-23T06:57:05;53.72;;;21.48;;
31716;SDS011;18301;51.076;17.046;2023-01-23T07:02:07;53.88;;;20.25;;
31716;SDS011;18301;51.076;17.046;2023-01-23T07:07:10;51.40;;;20.33;;
31716;SDS011;18301;51.076;17.046;2023-01-23T07:12:12;50.75;;;20.00;;
31716;SDS011;18301;51.076;17.046;2023-01-23T07:17:14;47.15;;;19.75;;
31716;SDS011;18301;51.076;17.046;2023-01-23T07:22:16;46.08;;;19.65;;
31716;SDS011;18301;51.076;17.046;2023-01-23T07:27:18;45.22;;;19.33;;
31716;SDS011;18301;51.076;17.046;2023-01-23T07:32:20;49.25;;;20.33;;
31716;SDS011;18301;51.076;17.046;2023-01-23T07:37:22;47.10;;;19.73;;
31716;SDS011;18301;51.076;17.046;2023-01-23T07:42:25;44.38;;;19.10;;
31716;SDS011;18301;51.076;17.046;2023-01-23T07:47:26;45.35;;;18.88;;
31716;SDS011;18301;51.076;17.046;2023-01-23T07:52:28;43.33;;;18.90;;
31716;SDS011;18301;51.076;17.046;2023-01-23T07:57:29;44.22;;;19.00;;
31716;SDS011;18301;51.076;17.046;2023-01-23T08:02:31;44.60;;;19.90;;
31716;SDS011;18301;51.076;17.046;2023-01-23T08:07:32;46.25;;;19.60;;
31716;SDS011;18301;51.076;17.046;2023-01-23T08:12:34;44.80;;;19.92;;
31716;SDS011;18301;51.076;17.046;2023-01-23T08:17:35;43.05;;;18.92;;
31716;SDS011;18301;51.076;17.046;2023-01-23T08:22:37;54.90;;;20.25;;
31716;SDS011;18301;51.076;17.046;2023-01-23T08:27:40;44.00;;;18.42;;
31716;SDS011;18301;51.076;17.046;2023-01-23T08:32:42;45.55;;;20.50;;
31716;SDS011;18301;51.076;17.046;2023-01-23T08:37:43;46.70;;;19.38;;
31716;SDS011;18301;51.076;17.046;2023-01-23T08:42:45;41.65;;;18.50;;
31716;SDS011;18301;51.076;17.046;2023-01-23T08:47:47;46.42;;;19.90;;
31716;SDS011;18301;51.076;17.046;2023-01-23T08:52:48;42.25;;;17.52;;
31716;SDS011;18301;51.076;17.046;2023-01-23T08:57:50;42.28;;;18.77;;
31716;SDS011;18301;51.076;17.046;2023-01-23T09:02:51;46.10;;;19.15;;
31716;SDS011;18301;51.076;17.046;2023-01-23T09:07:53;52.40;;;20.63;;
31716;SDS011;18301;51.076;17.046;2023-01-23T09:12:56;46.75;;;20.30;;
31716;SDS011;18301;51.076;17.046;2023-01-23T09:17:57;48.22;;;20.17;;
31716;SDS011;18301;51.076;17.046;2023-01-23T09:22:59;43.50;;;19.00;;
31716;SDS011;18301;51.076;17.046;2023-01-23T09:28:01;46.97;;;19.55;;
31716;SDS011;18301;51.076;17.046;2023-01-23T09:33:03;43.78;;;19.33;;
31716;SDS011;18301;51.076;17.046;2023-01-23T09:38:04;40.72;;;18.80;;
31716;SDS011;18301;51.076;17.046;2023-01-23T09:43:24;50.65;;;20.30;;
31716;SDS011;18301;51.076;17.046;2023-01-23T09:53:39;55.50;;;21.15;;
31716;SDS011;18301;51.076;17.046;2023-01-23T09:58:42;47.30;;;20.50;;
31716;SDS011;18301;51.076;17.046;2023-01-23T10:03:49;50.95;;;20.65;;
31716;SDS011;18301;51.076;17.046;2023-01-23T10:24:50;51.75;;;20.33;;
31716;SDS011;18301;51.076;17.046;2023-01-23T10:30:06;48.33;;;21.15;;
31716;SDS011;18301;51.076;17.046;2023-01-23T10:40:51;46.63;;;19.50;;
31716;SDS011;18301;51.076;17.046;2023-01-23T10:46:28;50.22;;;20.98;;
31716;SDS011;18301;51.076;17.046;2023-01-23T11:02:00;45.75;;;19.25;;
31716;SDS011;18301;51.076;17.046;2023-01-23T11:07:30;47.47;;;20.25;;
31716;SDS011;18301;51.076;17.046;2023-01-23T11:12:33;50.25;;;21.38;;
31716;SDS011;18301;51.076;17.046;2023-01-23T11:17:46;47.97;;;19.58;;
31716;SDS011;18301;51.076;17.046;2023-01-23T11:22:50;45.28;;;19.73;;
31716;SDS011;18301;51.076;17.046;2023-01-23T11:28:02;47.80;;;18.77;;
31716;SDS011;18301;51.076;17.046;2023-01-23T11:33:25;49.35;;;20.55;;
31716;SDS011;18301;51.076;17.046;2023-01-23T11:38:44;48.25;;;19.70;;
31716;SDS011;18301;51.076;17.046;2023-01-23T11:43:53;54.25;;;21.13;;
31716;SDS011;18301;51.076;17.046;2023-01-23T11:49:44;51.90;;;21.30;;
31716;SDS011;18301;51.076;17.046;2023-01-23T12:11:18;61.53;;;23.60;;
31716;SDS011;18301;51.076;17.046;2023-01-23T12:16:37;50.10;;;21.52;;
31716;SDS011;18301;51.076;17.046;2023-01-23T12:21:55;53.85;;;22.25;;
31716;SDS011;18301;51.076;17.046;2023-01-23T12:27:26;58.88;;;23.27;;
31716;SDS011;18301;51.076;17.046;2023-01-23T12:38:09;55.55;;;22.30;;
31716;SDS011;18301;51.076;17.046;2023-01-23T12:48:45;58.00;;;22.08;;
31716;SDS011;18301;51.076;17.046;2023-01-23T12:53:54;52.50;;;22.15;;
31716;SDS011;18301;51.076;17.046;2023-01-23T12:59:20;53.90;;;21.85;;
31716;SDS011;18301;51.076;17.046;2023-01-23T13:04:57;54.17;;;22.05;;
31716;SDS011;18301;51.076;17.046;2023-01-23T13:10:28;55.40;;;21.38;;
31716;SDS011;18301;51.076;17.046;2023-01-23T13:16:03;55.45;;;22.77;;
31716;SDS011;18301;51.076;17.046;2023-01-23T13:21:10;57.88;;;22.60;;
31716;SDS011;18301;51.076;17.046;2023-01-23T13:26:30;55.25;;;22.55;;
31716;SDS011;18301;51.076;17.046;2023-01-23T13:31:36;54.35;;;22.88;;
31716;SDS011;18301;51.076;17.046;2023-01-23T13:36:44;54.33;;;21.88;;
31716;SDS011;18301;51.076;17.046;2023-01-23T13:41:50;52.85;;;21.98;;
31716;SDS011;18301;51.076;17.046;2023-01-23T13:47:23;56.72;;;22.58;;
31716;SDS011;18301;51.076;17.046;2023-01-23T13:53:23;66.22;;;23.40;;
31716;SDS011;18301;51.076;17.046;2023-01-23T13:58:58;50.83;;;20.90;;
31716;SDS011;18301;51.076;17.046;2023-01-23T14:04:18;55.72;;;22.55;;
31716;SDS011;18301;51.076;17.046;2023-01-23T14:09:55;53.28;;;21.38;;
31716;SDS011;18301;51.076;17.046;2023-01-23T14:15:20;51.42;;;20.85;;
31716;SDS011;18301;51.076;17.046;2023-01-23T14:21:00;60.15;;;22.70;;
31716;SDS011;18301;51.076;17.046;2023-01-23T14:26:04;53.22;;;21.88;;
31716;SDS011;18301;51.076;17.046;2023-01-23T14:31:13;53.47;;;21.55;;
31716;SDS011;18301;51.076;17.046;2023-01-23T14:36:22;59.15;;;23.20;;
31716;SDS011;18301;51.076;17.046;2023-01-23T14:41:29;58.47;;;23.60;;
31716;SDS011;18301;51.076;17.046;2023-01-23T14:46:38;54.85;;;22.95;;
31716;SDS011;18301;51.076;17.046;2023-01-23T14:51:53;62.40;;;22.77;;
31716;SDS011;18301;51.076;17.046;2023-01-23T14:56:56;61.65;;;22.80;;
31716;SDS011;18301;51.076;17.046;2023-01-23T15:02:00;57.20;;;22.05;;
31716;SDS011;18301;51.076;17.046;2023-01-23T15:07:19;54.80;;;22.52;;
31716;SDS011;18301;51.076;17.046;2023-01-23T15:12:21;60.83;;;24.15;;
31716;SDS011;18301;51.076;17.046;2023-01-23T15:17:22;55.45;;;21.42;;
31716;SDS011;18301;51.076;17.046;2023-01-23T15:22:25;62.45;;;24.83;;
31716;SDS011;18301;51.076;17.046;2023-01-23T15:27:32;64.72;;;25.52;;
31716;SDS011;18301;51.076;17.046;2023-01-23T15:32:37;64.55;;;24.88;;
31716;SDS011;18301;51.076;17.046;2023-01-23T15:37:38;62.55;;;24.85;;
31716;SDS011;18301;51.076;17.046;2023-01-23T15:42:40;56.03;;;23.42;;
31716;SDS011;18301;51.076;17.046;2023-01-23T15:47:42;62.97;;;25.70;;
31716;SDS011;18301;51.076;17.046;2023-01-23T15:57:48;70.07;;;26.00;;
31716;SDS011;18301;51.076;17.046;2023-01-23T16:02:50;62.83;;;24.33;;
31716;SDS011;18301;51.076;17.046;2023-01-23T16:07:57;76.20;;;27.85;;
31716;SDS011;18301;51.076;17.046;2023-01-23T16:13:01;75.72;;;27.05;;
31716;SDS011;18301;51.076;17.046;2023-01-23T16:18:03;77.03;;;29.52;;
31716;SDS011;18301;51.076;17.046;2023-01-23T16:23:12;90.05;;;32.15;;
31716;SDS011;18301;51.076;17.046;2023-01-23T16:28:24;81.55;;;30.55;;
31716;SDS011;18301;51.076;17.046;2023-01-23T16:33:26;89.70;;;32.83;;
31716;SDS011;18301;51.076;17.046;2023-01-23T16:38:28;72.35;;;27.65;;
31716;SDS011;18301;51.076;17.046;2023-01-23T16:43:30;75.13;;;29.00;;
31716;SDS011;18301;51.076;17.046;2023-01-23T16:48:31;79.35;;;28.90;;
31716;SDS011;18301;51.076;17.046;2023-01-23T16:53:34;72.10;;;27.95;;
31716;SDS011;18301;51.076;17.046;2023-01-23T16:58:38;76.03;;;28.75;;
31716;SDS011;18301;51.076;17.046;2023-01-23T17:03:40;71.43;;;28.27;;
31716;SDS011;18301;51.076;17.046;2023-01-23T17:08:42;73.88;;;28.70;;
31716;SDS011;18301;51.076;17.046;2023-01-23T17:13:43;78.82;;;29.55;;
31716;SDS011;18301;51.076;17.046;2023-01-23T17:18:45;71.45;;;26.77;;
31716;SDS011;18301;51.076;17.046;2023-01-23T17:23:47;73.65;;;27.17;;
31716;SDS011;18301;51.076;17.046;2023-01-23T17:28:48;78.22;;;28.85;;
31716;SDS011;18301;51.076;17.046;2023-01-23T17:33:50;79.70;;;28.88;;
31716;SDS011;18301;51.076;17.046;2023-01-23T17:38:56;78.65;;;28.65;;
31716;SDS011;18301;51.076;17.046;2023-01-23T17:44:00;72.47;;;27.45;;
31716;SDS011;18301;51.076;17.046;2023-01-23T17:49:01;73.93;;;28.23;;
31716;SDS011;18301;51.076;17.046;2023-01-23T17:54:07;73.25;;;27.67;;
31716;SDS011;18301;51.076;17.046;2023-01-23T17:59:18;71.45;;;27.65;;
31716;SDS011;18301;51.076;17.046;2023-01-23T18:04:20;69.68;;;25.90;;
31716;SDS011;18301;51.076;17.046;2023-01-23T18:09:22;66.25;;;25.95;;
31716;SDS011;18301;51.076;17.046;2023-01-23T18:19:42;64.65;;;24.42;;
31716;SDS011;18301;51.076;17.046;2023-01-23T18:24:44;72.88;;;25.95;;
31716;SDS011;18301;51.076;17.046;2023-01-23T18:40:31;71.72;;;27.13;;
31716;SDS011;18301;51.076;17.046;2023-01-23T18:45:41;74.32;;;25.98;;
31716;SDS011;18301;51.076;17.046;2023-01-23T18:56:44;68.05;;;25.30;;
31716;SDS011;18301;51.076;17.046;2023-01-23T19:02:00;69.85;;;26.65;;
31716;SDS011;18301;51.076;17.046;2023-01-23T19:07:16;73.25;;;27.30;;
31716;SDS011;18301;51.076;17.046;2023-01-23T19:12:29;69.80;;;27.08;;
31716;SDS011;18301;51.076;17.046;2023-01-23T19:17:42;75.15;;;26.83;;
31716;SDS011;18301;51.076;17.046;2023-01-23T19:28:09;72.95;;;26.70;;
31716;SDS011;18301;51.076;17.046;2023-01-23T19:33:17;69.28;;;27.48;;
31716;SDS011;18301;51.076;17.046;2023-01-23T19:38:19;67.77;;;25.13;;
31716;SDS011;18301;51.076;17.046;2023-01-23T19:43:23;69.88;;;25.80;;
31716;SDS011;18301;51.076;17.046;2023-01-23T19:48:25;70.22;;;25.60;;
31716;SDS011;18301;51.076;17.046;2023-01-23T19:53:26;67.35;;;25.35;;
31716;SDS011;18301;51.076;17.046;2023-01-23T19:58:28;67.30;;;26.73;;
31716;SDS011;18301;51.076;17.046;2023-01-23T20:03:32;67.78;;;24.88;;
31716;SDS011;18301;51.076;17.046;2023-01-23T20:08:35;66.72;;;25.00;;
31716;SDS011;18301;51.076;17.046;2023-01-23T20:13:37;65.57;;;25.50;;
31716;SDS011;18301;51.076;17.046;2023-01-23T20:18:42;56.78;;;22.60;;
31716;SDS011;18301;51.076;17.046;2023-01-23T20:23:43;62.78;;;24.83;;
31716;SDS011;18301;51.076;17.046;2023-01-23T20:28:48;60.70;;;22.70;;
31716;SDS011;18301;51.076;17.046;2023-01-23T20:33:53;56.10;;;23.33;;
31716;SDS011;18301;51.076;17.046;2023-01-23T20:38:55;64.13;;;24.92;;
31716;SDS011;18301;51.076;17.046;2023-01-23T20:43:56;60.33;;;22.55;;
31716;SDS011;18301;51.076;17.046;2023-01-23T20:48:58;59.70;;;24.33;;
31716;SDS011;18301;51.076;17.046;2023-01-23T20:54:02;57.70;;;23.42;;
31716;SDS011;18301;51.076;17.046;2023-01-23T20:59:04;54.92;;;21.85;;
31716;SDS011;18301;51.076;17.046;2023-01-23T21:04:25;53.58;;;21.48;;
31716;SDS011;18301;51.076;17.046;2023-01-23T21:09:28;64.63;;;23.80;;
31716;SDS011;18301;51.076;17.046;2023-01-23T21:14:30;59.05;;;23.60;;
31716;SDS011;18301;51.076;17.046;2023-01-23T21:19:32;62.97;;;24.33;;
31716;SDS011;18301;51.076;17.046;2023-01-23T21:24:33;54.90;;;22.73;;
31716;SDS011;18301;51.076;17.046;2023-01-23T21:29:36;67.00;;;25.38;;
31716;SDS011;18301;51.076;17.046;2023-01-23T21:34:38;69.78;;;24.77;;
31716;SDS011;18301;51.076;17.046;2023-01-23T21:39:40;69.97;;;24.52;;
31716;SDS011;18301;51.076;17.046;2023-01-23T21:44:41;65.78;;;26.27;;
31716;SDS011;18301;51.076;17.046;2023-01-23T21:49:42;60.90;;;24.65;;
31716;SDS011;18301;51.076;17.046;2023-01-23T21:54:44;58.35;;;23.35;;
31716;SDS011;18301;51.076;17.046;2023-01-23T21:59:45;55.15;;;23.38;;
31716;SDS011;18301;51.076;17.046;2023-01-23T22:05:07;57.17;;;22.95;;
31716;SDS011;18301;51.076;17.046;2023-01-23T22:10:09;55.47;;;22.88;;
31716;SDS011;18301;51.076;17.046;2023-01-23T22:15:10;58.47;;;24.65;;
31716;SDS011;18301;51.076;17.046;2023-01-23T22:20:12;59.47;;;24.00;;
31716;SDS011;18301;51.076;17.046;2023-01-23T22:25:14;55.88;;;23.20;;
31716;SDS011;18301;51.076;17.046;2023-01-23T22:30:15;59.42;;;23.20;;
31716;SDS011;18301;51.076;17.046;2023-01-23T22:35:17;55.40;;;22.55;;
31716;SDS011;18301;51.076;17.046;2023-01-23T22:40:19;54.05;;;23.40;;
31716;SDS011;18301;51.076;17.046;2023-01-23T22:45:20;54.65;;;22.80;;
31716;SDS011;18301;51.076;17.046;2023-01-23T22:50:23;60.70;;;24.17;;
31716;SDS011;18301;51.076;17.046;2023-01-23T22:55:25;56.63;;;24.10;;
31716;SDS011;18301;51.076;17.046;2023-01-23T23:00:26;58.55;;;22.98;;
31716;SDS011;18301;51.076;17.046;2023-01-23T23:05:28;56.42;;;23.95;;
31716;SDS011;18301;51.076;17.046;2023-01-23T23:10:29;48.95;;;22.33;;
31716;SDS011;18301;51.076;17.046;2023-01-23T23:15:31;56.97;;;23.30;;
31716;SDS011;18301;51.076;17.046;2023-01-23T23:20:34;58.63;;;23.60;;
31716;SDS011;18301;51.076;17.046;2023-01-23T23:25:36;59.35;;;24.15;;
31716;SDS011;18301;51.076;17.046;2023-01-23T23:30:37;58.90;;;23.70;;
31716;SDS011;18301;51.076;17.046;2023-01-23T23:35:39;56.15;;;24.00;;
31716;SDS011;18301;51.076;17.046;2023-01-23T23:40:41;59.80;;;22.92;;
31716;SDS011;18301;51.076;17.046;2023-01-23T23:45:46;62.90;;;25.85;;
31716;SDS011;18301;51.076;17.046;2023-01-23T23:50:51;56.40;;;24.02;;
31716;SDS011;18301;51.076;17.046;2023-01-23T23:55:53;60.22;;;25.02;;
